createdAt,value
2023-05-15T00:02:09.457Z,16.50
2023-05-15T00:04:36.167Z,16.50
2023-05-15T00:07:02.817Z,16.50
2023-05-15T00:09:29.398Z,16.60
2023-05-15T00:11:56.614Z,16.50
2023-05-15T00:14:24.310Z,16.50
2023-05-15T00:16:50.929Z,16.50
2023-05-15T00:19:17.663Z,16.40
2023-05-15T00:21:44.480Z,16.40
2023-05-15T00:24:11.077Z,16.40
2023-05-15T00:26:37.789Z,16.40
2023-05-15T00:29:04.385Z,16.40
2023-05-15T00:31:31.084Z,16.40
2023-05-15T00:33:57.738Z,16.40
2023-05-15T00:36:25.863Z,16.40
2023-05-15T00:38:53.738Z,16.40
2023-05-15T00:41:22.497Z,16.40
2023-05-15T00:43:52.097Z,16.40
2023-05-15T00:46:20.467Z,16.30
2023-05-15T00:48:48.320Z,16.30
2023-05-15T00:51:14.986Z,16.40
2023-05-15T00:53:42.828Z,16.40
2023-05-15T00:56:10.892Z,16.40
2023-05-15T00:58:38.353Z,16.30
2023-05-15T01:01:07.440Z,16.30
2023-05-15T01:03:36.039Z,16.30
2023-05-15T01:06:02.808Z,16.30
2023-05-15T01:08:46.635Z,16.20
2023-05-15T01:11:15.583Z,16.20
2023-05-15T01:13:42.758Z,16.20
2023-05-15T01:16:10.159Z,16.20
2023-05-15T01:18:37.489Z,16.20
2023-05-15T01:21:31.998Z,16.20
2023-05-15T01:24:34.050Z,16.10
2023-05-15T01:27:18.897Z,16.00
2023-05-15T01:29:51.018Z,15.70
2023-05-15T01:32:24.048Z,15.70
2023-05-15T01:35:20.163Z,15.70
2023-05-15T01:37:51.182Z,15.80
2023-05-15T01:40:20.536Z,15.80
2023-05-15T01:43:11.505Z,15.90
2023-05-15T01:45:41.020Z,16.00
2023-05-15T01:48:08.789Z,15.90
2023-05-15T01:50:38.048Z,15.90
2023-05-15T01:53:07.894Z,15.90
2023-05-15T01:55:35.178Z,15.90
2023-05-15T01:58:02.818Z,15.90
2023-05-15T02:00:30.160Z,15.90
2023-05-15T02:02:57.890Z,15.90
2023-05-15T02:05:26.364Z,15.80
2023-05-15T02:07:53.591Z,15.70
2023-05-15T02:10:20.836Z,15.60
2023-05-15T02:12:49.420Z,15.60
2023-05-15T02:15:20.054Z,15.70
2023-05-15T02:17:46.696Z,15.70
2023-05-15T02:20:14.275Z,15.70
2023-05-15T02:22:40.952Z,15.70
2023-05-15T02:25:07.905Z,15.60
2023-05-15T02:27:51.177Z,15.60
2023-05-15T02:30:53.003Z,15.60
2023-05-15T02:33:49.950Z,15.60
2023-05-15T02:36:22.643Z,15.60
2023-05-15T02:38:52.778Z,15.60
2023-05-15T02:41:20.005Z,15.60
2023-05-15T02:43:49.042Z,15.60
2023-05-15T02:46:16.198Z,15.60
2023-05-15T02:48:44.131Z,15.50
2023-05-15T02:51:10.940Z,15.60
2023-05-15T02:53:41.599Z,15.50
2023-05-15T02:56:09.001Z,15.50
2023-05-15T02:58:36.273Z,15.50
2023-05-15T03:01:03.470Z,15.50
2023-05-15T03:03:30.335Z,15.50
2023-05-15T03:05:56.929Z,15.50
2023-05-15T03:08:23.518Z,15.50
2023-05-15T03:10:50.209Z,15.50
2023-05-15T03:13:16.835Z,15.50
2023-05-15T03:15:46.671Z,15.50
2023-05-15T03:18:13.486Z,15.50
2023-05-15T03:20:40.750Z,15.50
2023-05-15T03:23:07.387Z,15.50
2023-05-15T03:25:33.972Z,15.50
2023-05-15T03:28:00.600Z,15.50
2023-05-15T03:30:27.303Z,15.30
2023-05-15T03:32:54.088Z,15.00
2023-05-15T03:35:20.710Z,14.60
2023-05-15T03:37:47.292Z,14.20
2023-05-15T03:40:14.190Z,14.00
2023-05-15T03:42:40.764Z,13.80
2023-05-15T03:45:08.225Z,13.80
2023-05-15T03:47:34.835Z,13.80
2023-05-15T03:50:01.487Z,13.90
2023-05-15T03:52:28.112Z,13.90
2023-05-15T03:54:54.737Z,14.00
2023-05-15T03:57:21.363Z,14.10
2023-05-15T03:59:47.969Z,14.20
2023-05-15T04:02:14.735Z,14.30
2023-05-15T04:04:41.540Z,14.40
2023-05-15T04:07:08.173Z,14.50
2023-05-15T04:09:34.777Z,14.60
2023-05-15T04:12:01.351Z,14.60
2023-05-15T04:14:28.741Z,14.70
2023-05-15T04:16:55.392Z,14.80
2023-05-15T04:19:22.191Z,15.00
2023-05-15T04:21:48.898Z,14.90
2023-05-15T04:24:15.552Z,14.90
2023-05-15T04:26:42.257Z,15.00
2023-05-15T04:29:09.313Z,15.00
2023-05-15T04:31:36.170Z,15.00
2023-05-15T04:34:04.304Z,15.00
2023-05-15T04:36:31.689Z,15.00
2023-05-15T04:38:58.311Z,15.00
2023-05-15T04:41:25.540Z,15.00
2023-05-15T04:43:52.195Z,14.90
2023-05-15T04:46:18.851Z,14.80
2023-05-15T04:48:45.589Z,14.80
2023-05-15T04:51:12.281Z,14.80
2023-05-15T04:53:38.899Z,14.70
2023-05-15T04:56:05.665Z,14.70
2023-05-15T04:58:32.337Z,14.80
2023-05-15T05:00:59.831Z,14.70
2023-05-15T05:03:28.181Z,14.70
2023-05-15T05:05:54.822Z,14.70
2023-05-15T05:08:21.530Z,14.70
2023-05-15T05:10:48.191Z,14.70
2023-05-15T05:13:14.787Z,14.70
2023-05-15T05:15:41.415Z,14.80
2023-05-15T05:18:08.088Z,14.80
2023-05-15T05:20:34.887Z,14.90
2023-05-15T05:23:01.495Z,14.90
2023-05-15T05:25:28.198Z,15.00
2023-05-15T05:27:54.879Z,15.00
2023-05-15T05:30:22.281Z,15.00
2023-05-15T05:32:49.036Z,14.90
2023-05-15T05:35:15.715Z,14.90
2023-05-15T05:37:42.426Z,14.70
2023-05-15T05:40:09.690Z,14.70
2023-05-15T05:42:36.350Z,14.60
2023-05-15T05:45:03.075Z,14.50
2023-05-15T05:47:29.702Z,14.40
2023-05-15T05:49:57.024Z,14.30
2023-05-15T05:52:23.691Z,14.20
2023-05-15T05:54:50.581Z,14.30
2023-05-15T05:57:17.339Z,14.40
2023-05-15T05:59:44.082Z,14.70
2023-05-15T06:02:11.421Z,14.60
2023-05-15T06:04:38.248Z,14.50
2023-05-15T06:07:05.092Z,14.50
2023-05-15T06:09:31.860Z,14.50
2023-05-15T06:11:58.594Z,14.50
2023-05-15T06:14:25.275Z,14.50
2023-05-15T06:16:52.303Z,14.40
2023-05-15T06:19:19.079Z,14.40
2023-05-15T06:21:45.868Z,14.50
2023-05-15T06:24:12.609Z,14.60
2023-05-15T06:26:39.276Z,14.70
2023-05-15T06:29:05.916Z,14.70
2023-05-15T06:31:32.613Z,14.80
2023-05-15T06:33:59.463Z,14.80
2023-05-15T06:36:26.210Z,14.80
2023-05-15T06:38:52.794Z,14.70
2023-05-15T06:41:19.408Z,14.60
2023-05-15T06:43:46.073Z,14.70
2023-05-15T06:46:16.097Z,14.70
2023-05-15T06:48:42.806Z,14.60
2023-05-15T06:51:09.499Z,14.60
2023-05-15T06:53:36.188Z,14.50
2023-05-15T06:56:02.876Z,14.40
2023-05-15T06:58:29.690Z,14.40
2023-05-15T07:00:56.924Z,14.40
2023-05-15T07:03:24.268Z,14.40
2023-05-15T07:05:52.066Z,14.50
2023-05-15T07:08:18.716Z,14.60
2023-05-15T07:10:45.599Z,14.80
2023-05-15T07:13:12.180Z,14.90
2023-05-15T07:15:39.216Z,15.10
2023-05-15T07:18:06.685Z,15.20
2023-05-15T07:20:34.980Z,15.30
2023-05-15T07:23:01.905Z,15.40
2023-05-15T07:25:28.886Z,15.50
2023-05-15T07:27:55.776Z,15.60
2023-05-15T07:30:23.219Z,15.60
2023-05-15T07:32:50.270Z,15.70
2023-05-15T07:35:17.030Z,15.80
2023-05-15T07:37:43.901Z,15.90
2023-05-15T07:40:10.933Z,15.90
2023-05-15T07:42:39.545Z,15.80
2023-05-15T07:45:07.302Z,15.90
2023-05-15T07:47:35.559Z,15.90
2023-05-15T07:50:02.667Z,16.00
2023-05-15T07:52:29.335Z,16.10
2023-05-15T07:54:55.955Z,16.30
2023-05-15T07:57:23.089Z,16.30
2023-05-15T07:59:49.688Z,16.30
2023-05-15T08:02:16.309Z,16.30
2023-05-15T08:04:43.028Z,16.20
2023-05-15T08:07:09.840Z,16.20
2023-05-15T08:09:36.439Z,16.20
2023-05-15T08:12:21.157Z,16.10
2023-05-15T08:14:52.433Z,16.10
2023-05-15T08:17:19.491Z,16.00
2023-05-15T08:19:46.629Z,16.10
2023-05-15T08:22:13.460Z,16.20
2023-05-15T08:24:40.542Z,16.30
2023-05-15T08:27:08.321Z,16.40
2023-05-15T08:29:39.701Z,16.40
2023-05-15T08:32:07.694Z,16.40
2023-05-15T08:34:34.411Z,16.50
2023-05-15T08:37:01.047Z,16.50
2023-05-15T08:39:27.748Z,16.50
2023-05-15T08:42:27.498Z,16.50
2023-05-15T08:44:55.791Z,16.60
2023-05-15T08:47:23.531Z,16.60
2023-05-15T08:50:14.872Z,16.80
2023-05-15T08:52:46.901Z,16.80
2023-05-15T08:55:14.875Z,16.80
2023-05-15T08:57:42.141Z,16.90
2023-05-15T09:00:11.736Z,16.90
2023-05-15T09:02:39.568Z,16.70
2023-05-15T09:05:09.739Z,16.70
2023-05-15T09:07:37.921Z,16.80
2023-05-15T09:10:05.620Z,16.80
2023-05-15T09:12:34.594Z,16.80
2023-05-15T09:15:11.331Z,16.90
2023-05-15T09:17:38.809Z,17.10
2023-05-15T09:20:06.179Z,17.30
2023-05-15T09:22:36.601Z,17.40
2023-05-15T09:25:05.049Z,17.50
2023-05-15T09:27:42.790Z,17.50
2023-05-15T09:30:10.171Z,17.40
2023-05-15T09:32:37.744Z,17.30
2023-05-15T09:35:04.712Z,17.30
2023-05-15T09:37:33.014Z,17.30
2023-05-15T09:40:10.917Z,17.20
2023-05-15T09:42:38.546Z,17.20
2023-05-15T09:45:06.534Z,17.20
2023-05-15T09:47:34.217Z,17.30
2023-05-15T09:50:01.260Z,17.30
2023-05-15T09:52:28.904Z,17.30
2023-05-15T09:54:57.074Z,17.40
2023-05-15T09:57:23.978Z,17.60
2023-05-15T09:59:50.781Z,17.70
2023-05-15T10:02:25.032Z,17.60
2023-05-15T10:04:56.771Z,17.20
2023-05-15T10:07:34.450Z,16.80
2023-05-15T10:10:03.627Z,16.60
2023-05-15T10:12:32.023Z,16.30
2023-05-15T10:15:00.689Z,16.20
2023-05-15T10:17:34.423Z,16.20
2023-05-15T10:20:02.243Z,16.20
2023-05-15T10:22:30.701Z,16.20
2023-05-15T10:25:05.609Z,16.30
2023-05-15T10:27:35.312Z,16.30
2023-05-15T10:30:03.674Z,16.10
2023-05-15T10:32:30.882Z,15.80
2023-05-15T10:34:58.265Z,15.50
2023-05-15T10:37:25.771Z,15.20
2023-05-15T10:39:55.893Z,15.20
2023-05-15T10:42:26.081Z,15.10
2023-05-15T10:44:59.954Z,15.30
2023-05-15T10:47:27.930Z,15.40
2023-05-15T10:49:54.844Z,15.60
2023-05-15T10:52:21.860Z,15.80
2023-05-15T10:54:48.551Z,16.00
2023-05-15T10:57:15.520Z,16.20
2023-05-15T10:59:42.291Z,16.40
2023-05-15T11:02:30.355Z,16.60
2023-05-15T11:04:59.597Z,16.80
2023-05-15T11:07:26.665Z,17.00
2023-05-15T11:09:54.844Z,17.10
2023-05-15T11:12:22.466Z,17.30
2023-05-15T11:14:52.129Z,17.30
2023-05-15T11:17:18.913Z,17.40
2023-05-15T11:19:51.723Z,17.50
2023-05-15T11:22:36.556Z,17.60
2023-05-15T11:25:08.876Z,17.80
2023-05-15T11:27:43.487Z,17.90
2023-05-15T11:30:15.416Z,18.00
2023-05-15T11:32:48.099Z,18.10
2023-05-15T11:35:23.626Z,18.20
2023-05-15T11:37:54.047Z,18.30
2023-05-15T11:40:23.937Z,18.30
2023-05-15T11:43:29.517Z,18.40
2023-05-15T11:46:08.796Z,18.40
2023-05-15T11:48:39.528Z,18.40
2023-05-15T11:51:11.861Z,18.40
2023-05-15T11:53:39.935Z,18.50
2023-05-15T11:56:07.117Z,18.50
2023-05-15T11:58:33.739Z,18.60
2023-05-15T12:01:00.454Z,18.60
2023-05-15T12:03:38.528Z,18.70
2023-05-15T12:06:06.180Z,18.70
2023-05-15T12:08:34.824Z,18.80
2023-05-15T12:11:03.034Z,19.00
2023-05-15T12:13:31.441Z,19.00
2023-05-15T12:15:59.302Z,19.00
2023-05-15T12:18:26.120Z,19.00
2023-05-15T12:20:54.288Z,19.10
2023-05-15T12:23:23.355Z,19.10
2023-05-15T12:25:54.875Z,18.90
2023-05-15T12:28:22.105Z,18.60
2023-05-15T12:30:49.865Z,17.90
2023-05-15T12:33:16.954Z,17.50
2023-05-15T12:35:52.081Z,17.40
2023-05-15T12:38:20.073Z,17.30
2023-05-15T12:40:53.378Z,17.20
2023-05-15T12:43:23.493Z,17.10
2023-05-15T12:45:53.416Z,17.10
2023-05-15T12:48:21.363Z,17.20
2023-05-15T12:50:48.413Z,17.30
2023-05-15T12:53:16.312Z,17.50
2023-05-15T12:55:46.181Z,17.60
2023-05-15T12:58:15.139Z,17.80
2023-05-15T13:00:46.017Z,18.00
2023-05-15T13:03:13.989Z,18.30
2023-05-15T13:05:44.757Z,18.50
2023-05-15T13:08:18.499Z,18.50
2023-05-15T13:10:47.108Z,18.60
2023-05-15T13:13:14.296Z,18.80
2023-05-15T13:15:43.723Z,18.90
2023-05-15T13:18:12.494Z,19.00
2023-05-15T13:20:47.711Z,18.80
2023-05-15T13:23:19.562Z,18.60
2023-05-15T13:25:46.356Z,18.60
2023-05-15T13:28:13.832Z,18.50
2023-05-15T13:30:41.866Z,18.40
2023-05-15T13:33:10.418Z,18.50
2023-05-15T13:35:37.987Z,18.60
2023-05-15T13:38:04.667Z,18.70
2023-05-15T13:40:33.344Z,18.80
2023-05-15T13:42:59.989Z,18.80
2023-05-15T13:45:27.080Z,18.70
2023-05-15T13:47:55.494Z,18.60
2023-05-15T13:50:22.331Z,18.60
2023-05-15T13:52:49.017Z,18.60
2023-05-15T13:55:16.060Z,18.70
2023-05-15T13:57:43.587Z,18.90
2023-05-15T14:00:13.190Z,19.00
2023-05-15T14:02:41.599Z,19.00
2023-05-15T14:05:09.937Z,19.00
2023-05-15T14:07:36.932Z,19.00
2023-05-15T14:10:04.132Z,19.00
2023-05-15T14:12:30.973Z,19.10
2023-05-15T14:14:58.094Z,19.30
2023-05-15T14:17:24.975Z,19.50
2023-05-15T14:19:54.951Z,19.80
2023-05-15T14:22:24.758Z,20.00
2023-05-15T14:24:52.807Z,20.20
2023-05-15T14:27:19.832Z,20.40
2023-05-15T14:29:48.191Z,20.50
2023-05-15T14:32:15.914Z,20.60
2023-05-15T14:34:42.775Z,20.50
2023-05-15T14:37:09.495Z,20.40
2023-05-15T14:39:36.162Z,20.20
2023-05-15T14:42:02.837Z,20.20
2023-05-15T14:44:29.547Z,20.10
2023-05-15T14:47:07.130Z,20.10
2023-05-15T14:49:34.440Z,20.10
2023-05-15T14:52:01.516Z,20.20
2023-05-15T14:54:29.011Z,20.50
2023-05-15T14:56:57.527Z,20.80
2023-05-15T14:59:25.811Z,20.90
2023-05-15T15:01:52.551Z,20.90
2023-05-15T15:04:19.467Z,20.80
2023-05-15T15:06:49.824Z,20.70
2023-05-15T15:09:17.821Z,20.40
2023-05-15T15:11:46.269Z,20.00
2023-05-15T15:14:13.047Z,19.90
2023-05-15T15:16:39.832Z,20.00
2023-05-15T15:19:06.581Z,20.20
2023-05-15T15:21:34.530Z,20.30
2023-05-15T15:24:01.179Z,20.30
2023-05-15T15:26:27.860Z,20.30
2023-05-15T15:29:00.540Z,20.20
2023-05-15T15:31:29.547Z,20.20
2023-05-15T15:33:57.351Z,20.20
2023-05-15T15:36:24.858Z,20.20
2023-05-15T15:38:51.881Z,20.20
2023-05-15T15:41:18.582Z,20.20
2023-05-15T15:43:45.322Z,20.40
2023-05-15T15:46:12.045Z,20.60
2023-05-15T15:48:38.696Z,20.80
2023-05-15T15:51:05.816Z,20.90
2023-05-15T15:53:34.398Z,21.20
2023-05-15T15:56:01.542Z,21.50
2023-05-15T15:58:28.909Z,21.70
2023-05-15T16:00:55.698Z,21.60
2023-05-15T16:03:22.514Z,21.40
2023-05-15T16:05:49.418Z,21.10
2023-05-15T16:08:16.111Z,20.90
2023-05-15T16:10:42.738Z,20.70
2023-05-15T16:13:09.420Z,20.40
2023-05-15T16:15:36.043Z,20.30
2023-05-15T16:18:02.670Z,20.10
2023-05-15T16:20:29.621Z,20.00
2023-05-15T16:22:56.518Z,19.90
2023-05-15T16:25:23.317Z,19.90
2023-05-15T16:27:49.971Z,19.70
2023-05-15T16:30:16.776Z,19.60
2023-05-15T16:32:43.467Z,19.50
2023-05-15T16:35:10.275Z,19.40
2023-05-15T16:37:37.188Z,19.30
2023-05-15T16:40:04.345Z,19.20
2023-05-15T16:42:35.920Z,19.00
2023-05-15T16:45:02.834Z,19.00
2023-05-15T16:47:29.492Z,19.00
2023-05-15T16:49:56.239Z,19.00
2023-05-15T16:52:22.862Z,19.10
2023-05-15T16:54:49.494Z,19.20
2023-05-15T16:57:16.143Z,19.20
2023-05-15T16:59:42.750Z,19.30
2023-05-15T17:02:09.544Z,19.60
2023-05-15T17:04:37.478Z,20.10
2023-05-15T17:07:05.199Z,20.20
2023-05-15T17:09:32.756Z,19.80
2023-05-15T17:11:59.681Z,19.60
2023-05-15T17:14:26.536Z,19.40
2023-05-15T17:16:53.253Z,19.10
2023-05-15T17:19:20.137Z,18.80
2023-05-15T17:21:47.166Z,18.50
2023-05-15T17:24:15.700Z,18.20
2023-05-15T17:26:42.602Z,17.90
2023-05-15T17:29:10.803Z,17.70
2023-05-15T17:31:38.844Z,17.50
2023-05-15T17:34:05.568Z,17.20
2023-05-15T17:36:33.604Z,17.00
2023-05-15T17:39:00.522Z,16.80
2023-05-15T17:41:27.231Z,16.80
2023-05-15T17:43:53.934Z,16.70
2023-05-15T17:46:20.820Z,16.70
2023-05-15T17:48:47.622Z,16.60
2023-05-15T17:51:14.300Z,16.60
2023-05-15T17:53:40.963Z,16.40
2023-05-15T17:56:08.024Z,16.20
2023-05-15T17:58:34.673Z,16.10
2023-05-15T18:01:01.943Z,16.10
2023-05-15T18:03:29.049Z,16.20
2023-05-15T18:05:56.065Z,16.20
2023-05-15T18:08:23.116Z,16.20
2023-05-15T18:10:49.897Z,16.20
2023-05-15T18:13:16.876Z,16.10
2023-05-15T18:15:43.655Z,16.00
2023-05-15T18:18:10.910Z,15.90
2023-05-15T18:20:37.578Z,15.80
2023-05-15T18:23:04.218Z,15.80
2023-05-15T18:25:31.148Z,15.80
2023-05-15T18:27:57.787Z,15.90
2023-05-15T18:30:24.483Z,15.90
2023-05-15T18:32:51.298Z,16.00
2023-05-15T18:35:18.098Z,16.20
2023-05-15T18:37:44.689Z,16.30
2023-05-15T18:40:11.728Z,16.00
2023-05-15T18:42:38.563Z,15.70
2023-05-15T18:45:06.343Z,15.50
2023-05-15T18:47:33.045Z,15.10
2023-05-15T18:49:59.770Z,14.80
2023-05-15T18:52:26.909Z,14.50
2023-05-15T18:54:54.172Z,14.30
2023-05-15T18:57:21.061Z,14.20
2023-05-15T18:59:48.047Z,14.10
2023-05-15T19:02:15.001Z,14.00
2023-05-15T19:04:41.727Z,14.00
2023-05-15T19:07:08.401Z,14.00
2023-05-15T19:09:35.411Z,14.00
2023-05-15T19:12:02.941Z,14.00
2023-05-15T19:14:29.654Z,14.10
2023-05-15T19:16:56.430Z,14.00
2023-05-15T19:19:23.403Z,14.00
2023-05-15T19:21:51.803Z,14.10
2023-05-15T19:24:18.934Z,14.20
2023-05-15T19:26:45.748Z,14.40
2023-05-15T19:29:12.620Z,14.60
2023-05-15T19:31:39.471Z,14.80
2023-05-15T19:34:06.219Z,14.90
2023-05-15T19:36:32.874Z,14.90
2023-05-15T19:38:59.556Z,14.80
2023-05-15T19:41:26.252Z,14.80
2023-05-15T19:43:53.010Z,14.70
2023-05-15T19:46:20.010Z,14.70
2023-05-15T19:48:46.768Z,14.60
2023-05-15T19:51:13.680Z,14.60
2023-05-15T19:53:41.309Z,14.60
2023-05-15T19:56:08.048Z,14.70
2023-05-15T19:58:34.701Z,14.80
2023-05-15T20:01:01.325Z,14.80
2023-05-15T20:03:33.171Z,14.80
2023-05-15T20:06:01.480Z,14.90
2023-05-15T20:08:28.759Z,14.90
2023-05-15T20:10:57.298Z,14.90
2023-05-15T20:13:24.084Z,14.90
2023-05-15T20:15:58.163Z,14.80
2023-05-15T20:18:30.352Z,14.90
2023-05-15T20:20:58.948Z,14.90
2023-05-15T20:23:25.638Z,14.90
2023-05-15T20:25:52.388Z,14.90
2023-05-15T20:28:19.140Z,15.00
2023-05-15T20:30:47.341Z,15.00
2023-05-15T20:33:14.541Z,15.00
2023-05-15T20:35:42.703Z,15.00
2023-05-15T20:38:10.471Z,15.10
2023-05-15T20:40:37.581Z,15.20
2023-05-15T20:43:04.643Z,15.20
2023-05-15T20:45:34.408Z,15.20
2023-05-15T20:48:01.227Z,15.30
2023-05-15T20:50:28.357Z,15.50
2023-05-15T20:52:55.697Z,15.60
2023-05-15T20:55:22.576Z,15.70
2023-05-15T20:57:50.652Z,15.80
2023-05-15T21:00:18.495Z,15.80
2023-05-15T21:02:46.770Z,15.90
2023-05-15T21:05:13.853Z,16.00
2023-05-15T21:07:40.783Z,16.00
2023-05-15T21:10:08.006Z,16.10
2023-05-15T21:12:34.859Z,15.90
2023-05-15T21:15:02.063Z,15.70
2023-05-15T21:17:28.850Z,15.60
2023-05-15T21:19:57.472Z,15.30
2023-05-15T21:22:24.626Z,15.20
2023-05-15T21:24:51.569Z,15.20
2023-05-15T21:27:18.233Z,15.30
2023-05-15T21:29:44.950Z,15.30
2023-05-15T21:32:11.765Z,15.50
2023-05-15T21:34:39.391Z,15.70
2023-05-15T21:37:06.091Z,15.70
2023-05-15T21:39:32.748Z,15.50
2023-05-15T21:41:59.488Z,15.40
2023-05-15T21:44:26.201Z,15.30
2023-05-15T21:46:53.346Z,15.30
2023-05-15T21:49:20.164Z,15.30
2023-05-15T21:51:46.825Z,15.30
2023-05-15T21:54:13.661Z,15.20
2023-05-15T21:56:41.125Z,15.10
2023-05-15T21:59:08.159Z,15.20
2023-05-15T22:01:36.100Z,15.20
2023-05-15T22:04:03.144Z,15.30
2023-05-15T22:06:29.960Z,15.40
2023-05-15T22:08:57.513Z,15.40
2023-05-15T22:11:25.602Z,15.40
2023-05-15T22:13:52.803Z,15.20
2023-05-15T22:16:20.230Z,15.00
2023-05-15T22:18:47.564Z,14.80
2023-05-15T22:21:15.065Z,14.90
2023-05-15T22:23:41.773Z,15.00
2023-05-15T22:26:08.542Z,15.10
2023-05-15T22:28:35.411Z,15.10
2023-05-15T22:31:03.021Z,15.10
2023-05-15T22:33:29.817Z,15.00
2023-05-15T22:35:56.516Z,14.90
2023-05-15T22:38:23.159Z,14.80
2023-05-15T22:40:51.567Z,14.50
2023-05-15T22:43:18.437Z,14.30
2023-05-15T22:45:45.318Z,14.30
2023-05-15T22:48:12.158Z,14.20
2023-05-15T22:50:38.912Z,14.20
2023-05-15T22:53:05.658Z,14.30
2023-05-15T22:55:32.606Z,14.30
2023-05-15T22:57:59.341Z,14.30
2023-05-15T23:00:26.431Z,14.20
2023-05-15T23:02:55.276Z,14.10
2023-05-15T23:05:22.852Z,13.90
2023-05-15T23:08:47.045Z,14.00
2023-05-15T23:11:13.783Z,13.90
2023-05-15T23:13:40.499Z,13.90
2023-05-15T23:16:07.320Z,13.80
2023-05-15T23:18:34.025Z,13.80
2023-05-15T23:21:02.363Z,13.80
2023-05-15T23:23:29.020Z,13.80
2023-05-15T23:25:55.730Z,13.80
2023-05-15T23:28:22.437Z,13.80
2023-05-15T23:30:51.888Z,13.80
2023-05-15T23:33:18.614Z,13.70
2023-05-15T23:35:45.398Z,13.60
2023-05-15T23:38:12.007Z,13.60
2023-05-15T23:40:38.735Z,13.60
2023-05-15T23:43:06.847Z,13.60
2023-05-15T23:45:33.662Z,13.60
2023-05-15T23:48:00.399Z,13.60
2023-05-15T23:50:27.313Z,13.60
2023-05-15T23:52:54.260Z,13.50
2023-05-15T23:55:20.972Z,13.50
2023-05-15T23:57:48.304Z,13.60
